Time;durP1;ratioP1;P1;durP2;ratioP2;P2;SDS_P1;SDS_P2;PMS_P1;PMS_P2;Temp;Humidity;BMP_temperature;BMP_pressure;BME280_temperature;BME280_humidity;BME280_pressure;Samples;Min_cycle;Max_cycle;Signal;HPM_P1;HPM_P2
2023/07/08 00:00:50;;;;;;;8.60;3.22;;;17.80;99.90;;;;;;5049943;28;20128;-83
2023/07/08 00:03:16;;;;;;;4.15;3.17;;;16.60;99.90;;;;;;5030195;28;20123;-83
2023/07/08 00:05:42;;;;;;;5.43;2.85;;;17.70;99.90;;;;;;5033837;28;20033;-83
2023/07/08 00:08:15;;;;;;;3.85;2.88;;;17.80;99.90;;;;;;5020852;28;20542;-84
2023/07/08 00:10:41;;;;;;;4.80;2.88;;;17.60;99.90;;;;;;5021423;28;20099;-81
2023/07/08 00:13:09;;;;;;;4.32;2.88;;;17.60;99.90;;;;;;5055406;28;20052;-82
2023/07/08 00:15:36;;;;;;;6.85;3.50;;;17.60;99.90;;;;;;5058205;28;20141;-82
2023/07/08 00:18:09;;;;;;;2.80;2.40;;;17.60;99.90;;;;;;5055470;28;20298;-83
2023/07/08 00:20:36;;;;;;;5.50;3.30;;;17.60;99.90;;;;;;5059050;28;20036;-83
2023/07/08 00:23:03;;;;;;;3.95;2.97;;;17.60;99.90;;;;;;5039323;28;20037;-84
2023/07/08 00:25:30;;;;;;;4.32;2.95;;;17.60;99.90;;;;;;5055832;28;20041;-84
2023/07/08 00:27:55;;;;;;;3.58;2.70;;;18.30;99.90;;;;;;5059277;28;20696;-82
2023/07/08 00:30:25;;;;;;;5.85;3.17;;;17.50;99.90;;;;;;5057582;28;20033;-82
2023/07/08 00:32:55;;;;;;;4.38;3.00;;;17.50;99.90;;;;;;5052957;28;20045;-82
2023/07/08 00:35:22;;;;;;;4.72;3.20;;;17.90;99.90;;;;;;5056062;28;20041;-83
2023/07/08 00:37:52;;;;;;;3.60;3.08;;;17.50;99.90;;;;;;5061690;28;20047;-82
2023/07/08 00:40:20;;;;;;;7.03;3.50;;;17.60;99.90;;;;;;5052496;28;20041;-83
2023/07/08 00:42:47;;;;;;;5.05;2.58;;;17.50;99.90;;;;;;5036160;28;20409;-82
2023/07/08 00:45:40;;;;;;;5.68;2.80;;;17.50;99.90;;;;;;5055270;28;20484;-82
2023/07/08 00:48:24;;;;;;;5.25;2.47;;;17.50;99.90;;;;;;5059655;28;20036;-82
2023/07/08 00:50:50;;;;;;;;;;;17.50;99.90;;;;;;5057226;28;20346;-82
2023/07/08 00:53:33;;;;;;;4.25;2.95;;;17.40;99.90;;;;;;5057465;28;19920;-83
2023/07/08 00:56:03;;;;;;;5.50;2.90;;;17.40;99.90;;;;;;5059106;28;20091;-83
2023/07/08 00:58:37;;;;;;;4.75;3.10;;;17.40;99.90;;;;;;5057265;28;20058;-82
2023/07/08 01:01:06;;;;;;;6.00;3.33;;;17.40;99.90;;;;;;5039084;28;20041;-82
2023/07/08 01:03:34;;;;;;;8.65;2.83;;;18.00;99.90;;;;;;5067082;28;20036;-82
2023/07/08 01:06:00;;;;;;;7.13;2.90;;;17.30;99.90;;;;;;5067251;28;20040;-82
2023/07/08 01:08:28;;;;;;;4.97;3.13;;;17.30;99.90;;;;;;5062860;28;20045;-81
2023/07/08 01:11:01;;;;;;;4.00;2.58;;;17.30;99.90;;;;;;5063095;28;20044;-82
2023/07/08 01:13:32;;;;;;;5.50;2.90;;;17.30;99.90;;;;;;5059554;28;20111;-82
2023/07/08 01:15:58;;;;;;;3.72;3.10;;;17.30;99.90;;;;;;5045652;28;20052;-82
2023/07/08 01:18:25;;;;;;;6.85;3.08;;;17.90;99.90;;;;;;5061179;28;20112;-82
2023/07/08 01:20:55;;;;;;;4.60;3.00;;;17.30;99.90;;;;;;5045887;28;20053;-83
2023/07/08 01:23:21;;;;;;;5.35;2.90;;;17.30;99.90;;;;;;5036391;28;20049;-82
2023/07/08 01:25:47;;;;;;;4.75;2.83;;;17.20;99.90;;;;;;5065433;28;20047;-82
2023/07/08 01:28:14;;;;;;;5.18;3.03;;;17.30;99.90;;;;;;5061491;28;20040;-81
2023/07/08 01:30:45;;;;;;;6.55;3.10;;;17.20;99.90;;;;;;5055906;28;20091;-82
2023/07/08 01:33:18;;;;;;;5.30;2.88;;;17.20;99.90;;;;;;5067967;28;20128;-81
2023/07/08 01:35:46;;;;;;;5.18;2.90;;;17.20;99.90;;;;;;5042481;28;20519;-82
2023/07/08 01:38:15;;;;;;;4.32;3.10;;;17.20;99.90;;;;;;5055095;28;20405;-82
2023/07/08 01:40:50;;;;;;;4.63;3.03;;;17.20;99.90;;;;;;5043003;28;20045;-82
2023/07/08 01:43:15;;;;;;;4.45;3.08;;;17.20;99.90;;;;;;5064412;28;20058;-82
2023/07/08 01:45:42;;;;;;;3.83;2.50;;;17.20;99.90;;;;;;5055328;28;20116;-82
2023/07/08 01:48:11;;;;;;;4.63;3.25;;;17.20;99.90;;;;;;5059755;28;20041;-82
2023/07/08 01:50:40;;;;;;;10.65;3.80;;;17.20;99.90;;;;;;5061813;28;20028;-81
2023/07/08 01:53:11;;;;;;;4.60;2.60;;;17.20;99.90;;;;;;5034894;28;20045;-82
2023/07/08 01:55:37;;;;;;;4.85;3.40;;;17.20;99.90;;;;;;5047190;28;20041;-82
2023/07/08 01:58:03;;;;;;;4.28;2.78;;;17.20;99.90;;;;;;5062540;28;20093;-82
2023/07/08 02:00:28;;;;;;;5.75;2.63;;;17.20;99.90;;;;;;5059377;28;20041;-82
2023/07/08 02:02:54;;;;;;;4.47;2.78;;;17.10;99.90;;;;;;5045927;28;20409;-82
2023/07/08 02:05:20;;;;;;;6.13;3.10;;;17.10;99.90;;;;;;5059181;28;20082;-82
2023/07/08 02:07:45;;;;;;;6.63;3.17;;;17.10;99.90;;;;;;5056424;28;20065;-82
2023/07/08 02:10:11;;;;;;;7.78;3.45;;;17.10;99.90;;;;;;5039659;28;20041;-82
2023/07/08 02:12:37;;;;;;;4.28;3.10;;;17.10;99.90;;;;;;5059294;28;20036;-82
2023/07/08 02:15:05;;;;;;;5.40;3.20;;;17.10;99.90;;;;;;5048600;28;20064;-82
2023/07/08 02:17:30;;;;;;;5.80;3.40;;;17.10;99.90;;;;;;5039790;28;20071;-81
2023/07/08 02:19:56;;;;;;;4.82;3.20;;;17.10;99.90;;;;;;5057296;28;20041;-82
2023/07/08 02:22:23;;;;;;;4.30;2.75;;;17.10;99.90;;;;;;5052334;28;20083;-82
2023/07/08 02:24:54;;;;;;;3.85;3.00;;;17.10;99.90;;;;;;5064090;28;20042;-83
2023/07/08 02:27:20;;;;;;;6.30;3.22;;;17.10;99.90;;;;;;5055755;28;20048;-83
2023/07/08 02:29:46;;;;;;;6.03;2.78;;;16.50;99.90;;;;;;5047683;28;20530;-83
2023/07/08 02:32:12;;;;;;;5.82;3.53;;;17.00;99.90;;;;;;5056410;28;20132;-83
2023/07/08 02:34:38;;;;;;;5.93;3.25;;;17.00;99.90;;;;;;5057704;28;20159;-83
2023/07/08 02:37:04;;;;;;;5.20;3.65;;;17.00;99.90;;;;;;5056200;28;20480;-83
2023/07/08 02:39:29;;;;;;;5.40;2.65;;;16.90;99.90;;;;;;5046272;28;20021;-83
2023/07/08 02:41:55;;;;;;;4.72;3.80;;;17.00;99.90;;;;;;5049944;28;20861;-84
2023/07/08 02:44:21;;;;;;;4.47;2.60;;;17.60;99.90;;;;;;5059663;28;20114;-83
2023/07/08 02:46:46;;;;;;;5.97;4.00;;;16.90;99.90;;;;;;5040848;28;20092;-83
2023/07/08 02:49:12;;;;;;;3.95;3.42;;;16.80;99.90;;;;;;5051219;28;20072;-83
2023/07/08 02:51:38;;;;;;;6.55;3.65;;;16.80;99.90;;;;;;5052412;28;20041;-83
2023/07/08 02:54:03;;;;;;;6.53;3.75;;;16.80;99.90;;;;;;5052074;28;20040;-83
2023/07/08 02:56:29;;;;;;;5.10;3.30;;;16.80;99.90;;;;;;5064123;28;20044;-83
2023/07/08 02:58:55;;;;;;;4.57;3.53;;;16.80;99.90;;;;;;5056567;28;20087;-83
2023/07/08 03:01:20;;;;;;;8.65;3.80;;;16.70;99.90;;;;;;5051350;28;20098;-83
2023/07/08 03:03:47;;;;;;;5.15;4.03;;;16.70;99.90;;;;;;5043284;28;20112;-83
2023/07/08 03:06:13;;;;;;;5.80;3.58;;;16.70;99.90;;;;;;5059672;28;20067;-83
2023/07/08 03:08:39;;;;;;;5.95;4.50;;;16.60;99.90;;;;;;5057777;28;20055;-83
2023/07/08 03:11:07;;;;;;;8.60;4.18;;;16.60;99.90;;;;;;5053391;28;20041;-83
2023/07/08 03:13:34;;;;;;;5.38;3.53;;;16.60;99.90;;;;;;5053509;28;20040;-83
2023/07/08 03:16:02;;;;;;;6.78;3.90;;;16.60;99.90;;;;;;5063712;28;20040;-83
2023/07/08 03:18:28;;;;;;;8.40;4.57;;;16.70;99.90;;;;;;5033938;28;20033;-83
2023/07/08 03:20:58;;;;;;;4.57;3.40;;;16.50;99.90;;;;;;5057717;28;20033;-83
2023/07/08 03:23:24;;;;;;;6.25;3.40;;;15.30;99.90;;;;;;5059212;28;20045;-83
2023/07/08 03:25:51;;;;;;;4.53;3.72;;;16.50;99.90;;;;;;5062224;28;20033;-82
2023/07/08 03:28:16;;;;;;;7.18;4.10;;;16.50;99.90;;;;;;5031330;28;20041;-83
2023/07/08 03:30:44;;;;;;;7.40;3.55;;;16.50;99.90;;;;;;5056588;28;20443;-82
2023/07/08 03:33:11;;;;;;;5.13;3.97;;;16.50;99.90;;;;;;5035947;28;20044;-82
2023/07/08 03:35:38;;;;;;;7.50;3.92;;;16.50;99.90;;;;;;5027194;28;20097;-83
2023/07/08 03:38:04;;;;;;;4.75;3.67;;;16.50;99.90;;;;;;5048966;28;20263;-83
2023/07/08 03:40:31;;;;;;;4.95;3.78;;;16.50;99.90;;;;;;5044493;28;20090;-83
2023/07/08 03:42:56;;;;;;;4.30;3.50;;;16.40;99.90;;;;;;5057421;28;20048;-83
2023/07/08 03:45:22;;;;;;;4.38;3.45;;;16.40;99.90;;;;;;5055372;28;20465;-83
2023/07/08 03:47:48;;;;;;;8.70;4.72;;;16.40;99.90;;;;;;5044957;28;20044;-83
2023/07/08 03:50:22;;;;;;;5.90;4.03;;;16.40;99.90;;;;;;5054896;28;20068;-83
2023/07/08 03:52:48;;;;;;;6.10;3.80;;;16.40;99.90;;;;;;5055476;28;20036;-83
2023/07/08 03:55:14;;;;;;;7.35;4.50;;;16.40;99.90;;;;;;5038621;28;20481;-83
2023/07/08 03:57:40;;;;;;;3.90;3.40;;;16.30;99.90;;;;;;5059328;28;20064;-81
2023/07/08 04:00:09;;;;;;;7.78;4.20;;;16.30;99.90;;;;;;5052579;28;20040;-81
2023/07/08 04:02:45;;;;;;;8.50;3.97;;;16.30;99.90;;;;;;5053667;28;20041;-81
2023/07/08 04:05:15;;;;;;;9.15;4.40;;;16.40;99.90;;;;;;5033476;28;20037;-81
2023/07/08 04:07:41;;;;;;;9.45;4.22;;;16.20;99.90;;;;;;5053698;28;20055;-82
2023/07/08 04:10:09;;;;;;;9.23;4.07;;;16.20;99.90;;;;;;5063480;28;20500;-81
2023/07/08 04:12:34;;;;;;;4.40;3.47;;;16.20;99.90;;;;;;5055911;28;20087;-81
2023/07/08 04:15:00;;;;;;;6.97;4.22;;;16.20;99.90;;;;;;5059954;28;20072;-81
2023/07/08 04:17:26;;;;;;;11.60;4.80;;;16.20;99.90;;;;;;5042297;28;20045;-81
2023/07/08 04:19:52;;;;;;;10.10;4.78;;;16.20;99.90;;;;;;5050692;28;20074;-81
2023/07/08 04:22:17;;;;;;;4.53;3.75;;;16.20;99.90;;;;;;5060955;28;20139;-81
2023/07/08 04:24:43;;;;;;;9.95;4.68;;;16.20;99.90;;;;;;5057283;28;20040;-80
2023/07/08 04:27:16;;;;;;;6.80;4.30;;;16.10;99.90;;;;;;5057881;28;20074;-81
2023/07/08 04:29:44;;;;;;;5.07;4.30;;;16.10;99.90;;;;;;5036041;28;20808;-81
2023/07/08 04:32:10;;;;;;;11.63;4.38;;;16.10;99.90;;;;;;5051727;28;20037;-82
2023/07/08 04:34:36;;;;;;;5.82;3.80;;;16.20;99.90;;;;;;5045181;28;20064;-82
2023/07/08 04:37:04;;;;;;;8.18;3.95;;;16.20;99.90;;;;;;5056491;28;20049;-82
2023/07/08 04:39:30;;;;;;;7.53;4.18;;;16.20;99.90;;;;;;5059541;28;20149;-81
2023/07/08 04:41:56;;;;;;;10.10;4.32;;;16.20;99.90;;;;;;5047156;28;20049;-83
2023/07/08 04:44:22;;;;;;;8.30;4.22;;;16.20;99.90;;;;;;5056442;28;20087;-82
2023/07/08 04:46:54;;;;;;;9.32;4.60;;;16.20;99.90;;;;;;5033768;28;20045;-82
2023/07/08 04:49:21;;;;;;;6.68;4.78;;;16.30;99.90;;;;;;5021784;28;20121;-82
2023/07/08 04:51:47;;;;;;;5.32;4.07;;;16.30;99.90;;;;;;5056216;28;20039;-82
2023/07/08 04:54:13;;;;;;;6.03;4.47;;;16.30;99.90;;;;;;5012113;28;20132;-82
2023/07/08 04:56:41;;;;;;;6.57;3.95;;;16.30;99.90;;;;;;5033692;28;20045;-82
2023/07/08 04:59:13;;;;;;;7.32;4.22;;;16.40;99.90;;;;;;5059527;28;20076;-82
2023/07/08 05:01:39;;;;;;;8.07;3.72;;;16.40;99.90;;;;;;5058210;28;20515;-83
2023/07/08 05:04:06;;;;;;;5.07;3.97;;;16.40;99.90;;;;;;5043889;28;20068;-82
2023/07/08 05:06:33;;;;;;;6.80;4.13;;;17.20;99.90;;;;;;5061278;28;20051;-83
2023/07/08 05:08:59;;;;;;;5.60;3.72;;;16.40;99.90;;;;;;5044773;28;20060;-82
2023/07/08 05:11:25;;;;;;;6.38;3.65;;;16.50;99.90;;;;;;5036100;28;20041;-82
2023/07/08 05:13:50;;;;;;;6.90;4.32;;;16.50;99.90;;;;;;5045776;28;20407;-82
2023/07/08 05:16:16;;;;;;;4.57;3.70;;;16.50;99.90;;;;;;5043473;28;20044;-82
2023/07/08 05:18:42;;;;;;;5.68;3.90;;;16.50;99.90;;;;;;5051745;28;20037;-81
2023/07/08 05:21:09;;;;;;;5.65;3.40;;;16.60;99.90;;;;;;5060916;28;20116;-81
2023/07/08 05:23:35;;;;;;;7.40;3.58;;;16.60;99.90;;;;;;5057239;28;20514;-81
2023/07/08 05:26:02;;;;;;;4.72;3.55;;;16.60;99.90;;;;;;5042160;28;20036;-82
2023/07/08 05:28:28;;;;;;;6.28;3.42;;;16.70;99.90;;;;;;5044912;28;20045;-81
2023/07/08 05:30:57;;;;;;;7.78;3.83;;;16.70;99.90;;;;;;5059384;28;20453;-82
2023/07/08 05:33:29;;;;;;;5.60;3.55;;;16.70;99.90;;;;;;5064347;28;20045;-82
2023/07/08 05:35:55;;;;;;;5.85;3.65;;;17.90;99.90;;;;;;5061116;28;20038;-82
2023/07/08 05:38:21;;;;;;;7.40;3.65;;;16.80;99.90;;;;;;5053537;28;20096;-81
2023/07/08 05:40:53;;;;;;;7.65;4.13;;;17.10;99.90;;;;;;5052432;28;20552;-82
2023/07/08 05:43:19;;;;;;;4.18;3.72;;;16.90;99.90;;;;;;5062274;28;20431;-82
2023/07/08 05:45:45;;;;;;;8.48;3.40;;;17.10;99.90;;;;;;5026075;28;20041;-82
2023/07/08 05:48:11;;;;;;;4.18;3.65;;;16.90;99.90;;;;;;5054441;28;20043;-82
2023/07/08 05:50:37;;;;;;;7.60;3.70;;;17.30;99.90;;;;;;5032885;28;20043;-82
2023/07/08 05:53:09;;;;;;;7.10;3.53;;;17.00;99.90;;;;;;5065393;28;20044;-81
2023/07/08 05:55:34;;;;;;;6.03;3.75;;;17.10;99.90;;;;;;5060589;28;20560;-81
2023/07/08 05:58:00;;;;;;;8.02;3.75;;;17.10;99.90;;;;;;5061297;28;20140;-82
2023/07/08 06:00:26;;;;;;;3.33;2.83;;;17.30;99.90;;;;;;5043558;28;20041;-82
2023/07/08 06:02:51;;;;;;;5.30;3.30;;;18.10;99.90;;;;;;5065493;28;20106;-82
2023/07/08 06:05:17;;;;;;;3.42;3.03;;;17.60;99.90;;;;;;5064444;28;20123;-82
2023/07/08 06:07:43;;;;;;;4.60;3.50;;;17.30;99.90;;;;;;5060252;28;20044;-81
2023/07/08 06:10:09;;;;;;;7.55;3.38;;;17.70;99.90;;;;;;5056639;28;20025;-82
2023/07/08 06:12:34;;;;;;;4.00;3.55;;;17.40;99.90;;;;;;5065440;28;20819;-81
2023/07/08 06:15:02;;;;;;;6.65;3.67;;;17.50;99.90;;;;;;5074329;28;20036;-82
2023/07/08 06:17:28;;;;;;;5.00;3.40;;;17.50;99.90;;;;;;5063871;28;20117;-82
2023/07/08 06:19:54;;;;;;;6.00;3.20;;;17.60;99.90;;;;;;5047775;28;20446;-82
2023/07/08 06:22:22;;;;;;;8.90;3.25;;;17.70;99.90;;;;;;5064821;28;20047;-82
2023/07/08 06:24:47;;;;;;;4.93;3.03;;;17.70;99.90;;;;;;5043493;28;20045;-82
2023/07/08 06:27:13;;;;;;;4.72;3.10;;;17.70;99.90;;;;;;5060915;28;20033;-82
2023/07/08 06:29:39;;;;;;;5.72;3.50;;;17.80;99.90;;;;;;5064138;28;20484;-82
2023/07/08 06:32:05;;;;;;;4.28;2.90;;;17.90;99.90;;;;;;5065626;28;20045;-82
2023/07/08 06:34:31;;;;;;;6.75;2.95;;;17.90;99.90;;;;;;5062827;28;20032;-82
2023/07/08 06:36:56;;;;;;;3.88;2.83;;;18.00;99.90;;;;;;5021901;28;20049;-82
2023/07/08 06:39:22;;;;;;;5.00;3.22;;;18.00;99.90;;;;;;5056942;28;20040;-82
2023/07/08 06:41:48;;;;;;;4.75;2.80;;;18.10;99.90;;;;;;5062839;28;20454;-82
2023/07/08 06:44:13;;;;;;;5.63;3.00;;;18.10;99.90;;;;;;5030003;28;20036;-83
2023/07/08 06:46:39;;;;;;;5.97;3.17;;;18.10;99.90;;;;;;5061914;28;20044;-82
2023/07/08 06:49:08;;;;;;;5.80;2.80;;;18.20;99.90;;;;;;5045244;28;20090;-82
2023/07/08 06:51:34;;;;;;;4.07;2.83;;;18.30;99.90;;;;;;5063519;28;20116;-82
2023/07/08 06:54:04;;;;;;;5.20;3.28;;;18.30;99.90;;;;;;5022915;28;20175;-82
2023/07/08 06:56:30;;;;;;;5.68;3.10;;;18.40;99.90;;;;;;5056500;28;20037;-82
2023/07/08 06:58:55;;;;;;;3.88;3.05;;;18.40;99.90;;;;;;5051879;28;20055;-82
2023/07/08 07:01:21;;;;;;;6.18;2.88;;;18.50;99.90;;;;;;5060539;28;20401;-82
2023/07/08 07:03:47;;;;;;;4.80;3.00;;;18.50;99.90;;;;;;5044083;28;20041;-82
2023/07/08 07:06:12;;;;;;;5.72;2.78;;;18.60;99.90;;;;;;5064231;28;20044;-82
2023/07/08 07:08:38;;;;;;;3.63;2.67;;;18.70;99.90;;;;;;5062947;28;20150;-82
2023/07/08 07:11:04;;;;;;;6.95;3.15;;;18.70;99.90;;;;;;5040996;28;20052;-82
2023/07/08 07:13:29;;;;;;;5.03;2.90;;;18.80;99.90;;;;;;5057288;28;20037;-82
2023/07/08 07:15:55;;;;;;;2.95;2.60;;;18.90;99.90;;;;;;5044849;28;20199;-82
2023/07/08 07:18:21;;;;;;;7.13;2.95;;;18.90;99.90;;;;;;5063240;28;20047;-82
2023/07/08 07:20:49;;;;;;;5.57;2.70;;;19.00;99.90;;;;;;5061589;28;20040;-82
2023/07/08 07:23:15;;;;;;;4.65;2.55;;;19.10;99.90;;;;;;5061155;28;20033;-83
2023/07/08 07:25:41;;;;;;;3.67;2.25;;;19.20;99.90;;;;;;5061355;28;20044;-82
2023/07/08 07:28:07;;;;;;;4.78;2.33;;;19.30;99.90;;;;;;5064257;28;20464;-82
2023/07/08 07:30:33;;;;;;;3.58;2.80;;;19.40;99.90;;;;;;5044603;28;20048;-82
2023/07/08 07:33:00;;;;;;;5.75;2.95;;;19.40;99.90;;;;;;5059856;28;20045;-82
2023/07/08 07:35:25;;;;;;;4.95;2.63;;;19.50;99.90;;;;;;5059916;28;20040;-82
2023/07/08 07:37:54;;;;;;;5.55;3.13;;;19.70;99.90;;;;;;5061262;28;20045;-82
2023/07/08 07:40:19;;;;;;;3.95;2.35;;;20.00;99.90;;;;;;5045340;28;20036;-82
2023/07/08 07:42:46;;;;;;;3.33;2.47;;;19.80;99.90;;;;;;5044065;28;20055;-82
2023/07/08 07:45:13;;;;;;;4.38;2.75;;;19.70;99.90;;;;;;5058394;28;20047;-81
2023/07/08 07:47:39;;;;;;;3.17;2.78;;;19.90;99.90;;;;;;5062432;28;20040;-81
2023/07/08 07:50:06;;;;;;;3.95;2.85;;;20.00;99.90;;;;;;5059723;28;20393;-81
2023/07/08 07:52:33;;;;;;;5.38;2.45;;;20.00;99.90;;;;;;5041505;28;20128;-82
2023/07/08 07:54:58;;;;;;;3.50;2.10;;;20.10;99.90;;;;;;5065400;28;20037;-82
2023/07/08 07:57:25;;;;;;;4.13;2.28;;;20.20;99.90;;;;;;5065629;28;20120;-82
2023/07/08 07:59:53;;;;;;;5.85;2.78;;;20.20;99.90;;;;;;5046627;28;20098;-82
2023/07/08 08:02:19;;;;;;;5.20;2.78;;;20.30;99.90;;;;;;5052081;28;20049;-82
2023/07/08 08:04:45;;;;;;;5.10;2.30;;;20.40;99.90;;;;;;5043500;28;20059;-81
2023/07/08 08:07:10;;;;;;;6.07;2.67;;;20.50;99.90;;;;;;5043144;28;20049;-82
2023/07/08 08:09:37;;;;;;;3.15;2.40;;;20.50;99.90;;;;;;5055907;28;20131;-82
2023/07/08 08:12:04;;;;;;;3.80;2.83;;;20.50;99.90;;;;;;5064666;28;20037;-81
2023/07/08 08:14:30;;;;;;;6.47;2.80;;;20.60;99.90;;;;;;5055815;28;20045;-81
2023/07/08 08:16:56;;;;;;;3.65;2.75;;;20.70;99.90;;;;;;5048913;28;20064;-81
2023/07/08 08:19:22;;;;;;;5.70;2.97;;;20.70;99.90;;;;;;5052483;28;20120;-81
2023/07/08 08:21:48;;;;;;;3.13;2.10;;;20.80;99.90;;;;;;5058370;28;20447;-82
2023/07/08 08:24:14;;;;;;;4.85;2.45;;;20.90;99.90;;;;;;5061582;28;20033;-82
2023/07/08 08:26:39;;;;;;;3.70;2.85;;;21.10;99.90;;;;;;5050575;28;20500;-81
2023/07/08 08:29:05;;;;;;;6.25;2.33;;;21.10;99.90;;;;;;5062285;28;20029;-82
2023/07/08 08:31:34;;;;;;;3.50;2.58;;;21.10;99.90;;;;;;5044584;28;20051;-81
2023/07/08 08:34:03;;;;;;;5.03;2.60;;;21.20;99.90;;;;;;5050845;28;20053;-82
2023/07/08 08:36:29;;;;;;;2.88;2.20;;;21.30;99.90;;;;;;5054795;28;20037;-82
2023/07/08 08:38:55;;;;;;;4.32;2.28;;;21.30;99.90;;;;;;5046033;28;20110;-82
2023/07/08 08:41:34;;;;;;;3.25;2.15;;;21.40;99.90;;;;;;5072886;28;20037;-83
2023/07/08 08:44:04;;;;;;;4.72;2.70;;;21.80;99.90;;;;;;5089820;23;20048;-82
2023/07/08 08:46:42;;;;;;;4.05;2.42;;;21.60;99.90;;;;;;5068310;28;20033;-82
2023/07/08 08:49:16;;;;;;;3.85;2.03;;;21.70;99.90;;;;;;5055519;28;20229;-82
2023/07/08 08:51:42;;;;;;;4.60;2.95;;;21.70;99.90;;;;;;5033819;28;20052;-82
2023/07/08 08:54:09;;;;;;;3.92;2.63;;;21.80;99.90;;;;;;5061754;28;20044;-81
2023/07/08 08:57:06;;;;;;;5.93;3.30;;;21.90;99.90;;;;;;5039361;28;20063;-84
2023/07/08 08:59:54;;;;;;;9.05;2.28;;;22.00;99.90;;;;;;5047563;28;20057;-80
2023/07/08 09:02:51;;;;;;;9.07;2.70;;;22.00;99.90;;;;;;5050885;28;20100;-84
2023/07/08 09:05:16;;;;;;;3.30;2.45;;;22.20;99.90;;;;;;5043198;28;20049;-82
2023/07/08 09:08:01;;;;;;;6.45;2.40;;;22.30;99.90;;;;;;5033632;28;20037;-85
2023/07/08 09:10:48;;;;;;;2.53;1.90;;;22.40;99.90;;;;;;5059361;28;20051;-81
2023/07/08 09:13:33;;;;;;;3.72;2.67;;;22.50;99.90;;;;;;5039262;28;20037;-83
2023/07/08 09:16:05;;;;;;;3.55;2.53;;;22.50;99.90;;;;;;5064645;28;20166;-84
2023/07/08 09:19:05;;;;;;;5.97;2.42;;;22.70;99.90;;;;;;5062416;28;20360;-78
2023/07/08 09:21:43;;;;;;;6.25;2.53;;;22.70;99.90;;;;;;5023914;28;20211;-77
2023/07/08 09:24:48;;;;;;;5.90;2.80;;;22.90;99.90;;;;;;5067449;28;20048;-76
2023/07/08 09:27:14;;;;;;;5.97;2.80;;;22.90;99.90;;;;;;5068299;28;20074;-78
2023/07/08 09:29:39;;;;;;;5.30;2.95;;;23.00;99.90;;;;;;5047318;28;20089;-77
2023/07/08 09:32:27;;;;;;;7.55;2.55;;;23.00;99.90;;;;;;5025749;28;20053;-78
2023/07/08 09:35:01;;;;;;;5.22;2.58;;;23.10;99.90;;;;;;5062197;28;20044;-79
2023/07/08 09:37:35;;;;;;;5.55;3.10;;;23.20;99.90;;;;;;5065468;28;20127;-80
2023/07/08 09:40:25;;;;;;;5.05;2.70;;;23.30;99.90;;;;;;5055652;28;20527;-79
2023/07/08 09:42:54;;;;;;;6.75;2.40;;;23.40;99.90;;;;;;5044459;28;20565;-80
2023/07/08 09:45:24;;;;;;;4.40;2.80;;;23.50;99.90;;;;;;5051551;28;20045;-77
2023/07/08 09:47:55;;;;;;;4.88;2.38;;;23.50;99.90;;;;;;5055330;28;20064;-78
2023/07/08 09:50:25;;;;;;;5.30;2.65;;;23.60;99.90;;;;;;5041596;28;20472;-77
2023/07/08 09:53:00;;;;;;;5.93;2.95;;;23.80;99.90;;;;;;5058602;28;20045;-77
2023/07/08 09:55:28;;;;;;;3.20;2.83;;;23.80;99.90;;;;;;5062758;28;20052;-78
2023/07/08 09:57:57;;;;;;;3.17;2.67;;;23.90;99.90;;;;;;5062586;28;20052;-83
2023/07/08 10:00:34;;;;;;;6.82;2.63;;;24.00;99.90;;;;;;5052351;28;20044;-83
2023/07/08 10:03:06;;;;;;;3.00;2.47;;;24.10;99.90;;;;;;5055091;28;20090;-79
2023/07/08 10:05:52;;;;;;;4.40;2.83;;;24.10;99.90;;;;;;5060653;28;20578;-79
2023/07/08 10:08:22;;;;;;;3.72;2.10;;;24.20;99.90;;;;;;5043888;28;20101;-82
2023/07/08 10:11:01;;;;;;;4.88;2.83;;;24.30;99.90;;;;;;5056907;28;20047;-82
2023/07/08 10:13:48;;;;;;;4.57;3.03;;;24.30;99.90;;;;;;5047118;28;20044;-82
2023/07/08 10:16:30;;;;;;;3.35;2.60;;;24.50;99.90;;;;;;5053034;28;20112;-83
2023/07/08 10:18:57;;;;;;;5.05;2.45;;;24.50;99.90;;;;;;5048176;28;20056;-84
2023/07/08 10:21:31;;;;;;;5.10;2.67;;;24.60;99.90;;;;;;5052796;28;20048;-82
2023/07/08 10:24:03;;;;;;;6.97;2.63;;;24.70;99.90;;;;;;5058145;28;20122;-82
2023/07/08 10:26:31;;;;;;;4.57;2.70;;;24.90;99.90;;;;;;5055328;28;20056;-82
2023/07/08 10:29:34;;;;;;;4.68;2.50;;;25.00;99.90;;;;;;5058160;28;20048;-83
2023/07/08 10:32:22;;;;;;;4.35;2.70;;;25.00;99.90;;;;;;5059100;28;20053;-83
2023/07/08 10:35:29;;;;;;;5.57;2.55;;;25.10;99.90;;;;;;5058697;28;20067;-82
2023/07/08 10:38:29;;;;;;;5.35;2.97;;;25.20;99.90;;;;;;4979145;28;20076;-82
2023/07/08 10:41:06;;;;;;;4.82;2.80;;;25.30;99.90;;;;;;5019049;28;20052;-82
2023/07/08 10:43:42;;;;;;;8.68;2.80;;;25.40;99.80;;;;;;5054159;28;20056;-82
2023/07/08 10:46:40;;;;;;;7.18;2.75;;;25.50;99.90;;;;;;5044197;28;20107;-82
2023/07/08 10:49:24;;;;;;;2.95;2.67;;;25.70;99.70;;;;;;4997255;28;20049;-83
2023/07/08 10:52:27;;;;;;;3.38;2.50;;;25.80;99.90;;;;;;5044137;28;20048;-82
2023/07/08 10:55:11;;;;;;;4.25;2.88;;;26.00;99.50;;;;;;5058140;28;20099;-83
2023/07/08 10:57:49;;;;;;;2.65;2.35;;;26.00;99.50;;;;;;5058524;28;20036;-83
2023/07/08 11:00:29;;;;;;;4.20;2.38;;;26.10;99.10;;;;;;5066897;28;20055;-83
2023/07/08 11:03:13;;;;;;;5.57;2.85;;;26.20;99.10;;;;;;5058012;28;20099;-83
2023/07/08 11:05:51;;;;;;;4.00;2.38;;;26.30;99.00;;;;;;5059542;28;20045;-83
2023/07/08 11:08:29;;;;;;;6.10;2.80;;;26.40;99.00;;;;;;5058504;28;20119;-83
2023/07/08 11:11:00;;;;;;;3.50;2.60;;;26.50;98.10;;;;;;5059430;28;20047;-83
2023/07/08 11:13:29;;;;;;;5.15;3.00;;;26.70;98.10;;;;;;5067260;28;20102;-83
2023/07/08 11:16:05;;;;;;;6.15;3.05;;;26.80;97.70;;;;;;5048251;28;20393;-83
2023/07/08 11:19:06;;;;;;;4.78;2.40;;;26.90;98.10;;;;;;5066757;28;20057;-84
2023/07/08 11:21:40;;;;;;;6.35;2.95;;;27.00;97.30;;;;;;5004848;28;20196;-82
2023/07/08 11:24:28;;;;;;;5.13;2.42;;;27.10;97.20;;;;;;5039789;28;20040;-83
2023/07/08 11:26:57;;;;;;;6.60;2.53;;;27.20;97.50;;;;;;5058595;28;20080;-88
2023/07/08 11:29:32;;;;;;;17.58;2.97;;;27.30;97.00;;;;;;5051145;28;20127;-83
2023/07/08 11:31:58;;;;;;;2.80;2.58;;;27.50;95.70;;;;;;5043640;28;20165;-85
2023/07/08 11:34:28;;;;;;;3.78;3.20;;;27.60;95.60;;;;;;5047204;28;20049;-88
2023/07/08 11:36:56;;;;;;;3.55;2.50;;;27.70;95.80;;;;;;5030979;28;20052;-87
2023/07/08 11:39:43;;;;;;;6.35;2.63;;;27.80;96.00;;;;;;5045688;28;20099;-85
2023/07/08 11:42:19;;;;;;;5.03;3.28;;;27.90;95.70;;;;;;5045924;28;20045;-87
2023/07/08 11:44:51;;;;;;;8.23;2.88;;;28.00;95.50;;;;;;5003347;28;20041;-87
2023/07/08 11:47:47;;;;;;;5.28;2.80;;;28.10;95.60;;;;;;5043884;28;20060;-87
2023/07/08 11:50:31;;;;;;;6.60;2.72;;;28.30;95.30;;;;;;5040435;28;20116;-88
2023/07/08 11:53:06;;;;;;;5.10;2.55;;;28.40;94.60;;;;;;5045785;28;20129;-85
2023/07/08 11:55:42;;;;;;;4.10;2.67;;;28.60;94.40;;;;;;5052674;28;20045;-84
2023/07/08 11:58:22;;;;;;;6.28;3.08;;;28.70;94.20;;;;;;5042074;28;20065;-83
2023/07/08 12:01:28;;;;;;;2.92;2.67;;;28.70;93.80;;;;;;5046541;28;20036;-82
2023/07/08 12:04:09;;;;;;;7.38;2.80;;;28.80;93.30;;;;;;5026150;28;20076;-83
2023/07/08 12:06:34;;;;;;;6.90;3.17;;;29.00;93.90;;;;;;5029286;28;20041;-89
2023/07/08 12:09:14;;;;;;;3.60;2.70;;;29.00;94.00;;;;;;5020374;28;20049;-84
2023/07/08 12:11:44;;;;;;;4.15;2.72;;;29.20;93.80;;;;;;5039722;28;20047;-83
2023/07/08 12:14:11;;;;;;;4.47;2.78;;;29.30;93.90;;;;;;5034532;28;20052;-81
2023/07/08 12:16:37;;;;;;;5.30;2.95;;;29.50;93.90;;;;;;5059483;28;20108;-81
2023/07/08 12:19:04;;;;;;;6.65;2.83;;;29.60;93.60;;;;;;5053276;28;20119;-85
2023/07/08 12:21:34;;;;;;;5.05;3.00;;;29.70;92.90;;;;;;5054901;28;20037;-87
2023/07/08 12:24:10;;;;;;;4.15;2.35;;;29.80;92.90;;;;;;5047660;28;20594;-88
2023/07/08 12:26:36;;;;;;;4.45;3.25;;;29.80;93.00;;;;;;5054739;28;20032;-82
2023/07/08 12:29:02;;;;;;;4.18;2.70;;;30.00;92.80;;;;;;5052727;28;20046;-87
2023/07/08 12:31:31;;;;;;;7.63;2.78;;;30.10;92.50;;;;;;5055670;28;20067;-87
2023/07/08 12:33:58;;;;;;;5.63;2.33;;;30.10;91.70;;;;;;5054215;28;20108;-89
2023/07/08 12:36:27;;;;;;;3.55;2.70;;;30.20;92.20;;;;;;5033089;28;20036;-87
2023/07/08 12:38:56;;;;;;;3.33;3.08;;;30.30;91.80;;;;;;5040860;28;20388;-82
2023/07/08 12:41:29;;;;;;;5.18;2.83;;;30.40;91.90;;;;;;5046511;28;20116;-86
2023/07/08 12:43:55;;;;;;;;;;;30.50;90.60;;;;;;5038603;28;20457;-82
2023/07/08 12:46:30;;;;;;;3.17;2.92;;;30.50;91.20;;;;;;5045717;28;19974;-82
2023/07/08 12:48:56;;;;;;;4.00;2.72;;;30.50;91.30;;;;;;5052920;28;20040;-82
2023/07/08 12:51:27;;;;;;;3.10;2.80;;;30.60;90.80;;;;;;5062535;28;20420;-81
2023/07/08 12:53:54;;;;;;;3.40;2.72;;;30.70;90.90;;;;;;5058203;28;20048;-81
2023/07/08 12:56:23;;;;;;;3.13;2.88;;;30.80;90.60;;;;;;5062467;28;20037;-82
2023/07/08 12:58:59;;;;;;;8.63;3.00;;;30.90;90.50;;;;;;5064760;28;20049;-81
2023/07/08 13:01:31;;;;;;;5.38;3.05;;;31.00;90.40;;;;;;5047311;28;20049;-81
2023/07/08 13:04:06;;;;;;;2.70;2.50;;;31.10;90.90;;;;;;5061648;28;20051;-81